createdAt,value
2018-06-24T00:00:19.786Z,50.40
2018-06-24T00:02:46.283Z,50.50
2018-06-24T00:05:12.789Z,50.50
2018-06-24T00:07:39.257Z,50.70
2018-06-24T00:10:05.786Z,50.30
2018-06-24T00:12:32.291Z,50.70
2018-06-24T00:14:58.776Z,50.70
2018-06-24T00:17:25.293Z,50.50
2018-06-24T00:19:51.803Z,50.80
2018-06-24T00:24:45.243Z,50.60
2018-06-24T00:27:11.716Z,50.40
2018-06-24T00:29:38.213Z,50.70
2018-06-24T00:32:04.687Z,50.80
2018-06-24T00:34:31.144Z,50.60
2018-06-24T00:36:57.920Z,50.60
2018-06-24T00:39:24.394Z,50.50
2018-06-24T00:41:50.877Z,50.40
2018-06-24T00:44:17.324Z,50.60
2018-06-24T00:46:43.789Z,50.60
2018-06-24T00:49:10.261Z,50.70
2018-06-24T00:51:36.709Z,50.60
2018-06-24T00:54:03.206Z,50.60
2018-06-24T00:56:29.676Z,50.50
2018-06-24T00:58:56.188Z,51.10
2018-06-24T01:01:22.660Z,50.50
2018-06-24T01:03:49.120Z,50.50
2018-06-24T01:06:15.611Z,50.60
2018-06-24T01:08:42.099Z,50.50
2018-06-24T01:11:08.540Z,50.60
2018-06-24T01:13:34.994Z,50.50
2018-06-24T01:16:01.558Z,50.50
2018-06-24T01:18:28.025Z,50.60
2018-06-24T01:20:54.555Z,50.50
2018-06-24T01:23:21.057Z,50.50
2018-06-24T01:25:47.543Z,50.50
2018-06-24T01:28:14.020Z,50.50
2018-06-24T01:30:40.488Z,50.60
2018-06-24T01:33:06.948Z,50.60
2018-06-24T01:35:34.200Z,50.70
2018-06-24T01:38:00.680Z,50.60
2018-06-24T01:40:27.156Z,50.70
2018-06-24T01:42:53.613Z,50.60
2018-06-24T01:45:20.856Z,50.60
2018-06-24T01:47:47.300Z,50.50
2018-06-24T01:50:13.762Z,50.60
2018-06-24T01:52:40.298Z,50.50
2018-06-24T01:55:07.175Z,50.60
2018-06-24T01:57:33.596Z,50.60
2018-06-24T02:00:00.092Z,50.50
2018-06-24T02:02:26.574Z,50.50
2018-06-24T02:04:53.065Z,50.50
2018-06-24T02:07:19.558Z,50.60
2018-06-24T02:09:46.038Z,50.70
2018-06-24T02:12:12.520Z,50.50
2018-06-24T02:14:39.004Z,50.60
2018-06-24T02:17:05.516Z,51.30
2018-06-24T02:19:31.971Z,50.60
2018-06-24T02:21:58.453Z,50.60
2018-06-24T02:24:24.933Z,50.80
2018-06-24T02:26:52.015Z,50.80
2018-06-24T02:29:18.498Z,50.80
2018-06-24T02:31:45.021Z,50.50
2018-06-24T02:34:12.010Z,50.50
2018-06-24T02:36:38.503Z,50.50
2018-06-24T02:39:05.023Z,50.50
2018-06-24T02:41:31.518Z,50.40
2018-06-24T02:43:58.006Z,50.20
2018-06-24T02:46:24.468Z,50.10
2018-06-24T02:48:51.092Z,50.20
2018-06-24T02:51:17.591Z,50.20
2018-06-24T02:56:11.079Z,50.20
2018-06-24T02:58:37.547Z,50.10
2018-06-24T03:01:04.020Z,50.00
2018-06-24T03:03:30.463Z,50.00
2018-06-24T03:05:57.375Z,50.00
2018-06-24T03:08:23.849Z,49.90
2018-06-24T03:10:50.311Z,50.10
2018-06-24T03:13:16.800Z,50.20
2018-06-24T03:15:43.296Z,50.40
2018-06-24T03:18:09.761Z,50.30
2018-06-24T03:20:36.273Z,50.20
2018-06-24T03:23:02.760Z,50.40
2018-06-24T03:25:29.222Z,50.30
2018-06-24T03:27:56.367Z,49.20
2018-06-24T03:30:23.137Z,50.30
2018-06-24T03:32:49.623Z,51.00
2018-06-24T03:35:16.643Z,50.30
2018-06-24T03:37:43.195Z,50.20
2018-06-24T03:40:09.659Z,50.00
2018-06-24T03:42:36.099Z,50.50
2018-06-24T03:45:03.439Z,51.00
2018-06-24T03:47:29.907Z,50.20
2018-06-24T03:50:03.817Z,50.40
2018-06-24T03:52:30.371Z,50.30
2018-06-24T03:54:56.902Z,50.20
2018-06-24T03:57:23.394Z,50.20
2018-06-24T03:59:49.881Z,50.50
2018-06-24T04:02:16.365Z,50.50
2018-06-24T04:04:42.858Z,50.50
2018-06-24T04:07:09.299Z,50.50
2018-06-24T04:09:35.787Z,50.90
2018-06-24T04:12:02.287Z,50.50
2018-06-24T04:14:28.777Z,50.60
2018-06-24T04:16:55.315Z,50.40
2018-06-24T04:19:21.824Z,50.50
2018-06-24T04:24:15.259Z,50.50
2018-06-24T04:26:41.750Z,50.50
2018-06-24T04:29:08.216Z,50.50
2018-06-24T04:31:34.748Z,50.50
2018-06-24T04:34:01.240Z,50.50
2018-06-24T04:36:27.741Z,50.50
2018-06-24T04:38:54.212Z,50.50
2018-06-24T04:41:20.713Z,50.60
2018-06-24T04:43:47.207Z,50.50
2018-06-24T04:46:13.703Z,50.70
2018-06-24T04:48:40.141Z,50.60
2018-06-24T04:51:06.617Z,50.50
2018-06-24T04:53:33.123Z,50.50
2018-06-24T04:55:59.611Z,50.60
2018-06-24T04:58:26.087Z,50.70
2018-06-24T05:00:52.573Z,50.50
2018-06-24T05:03:19.110Z,50.60
2018-06-24T05:05:45.610Z,50.70
2018-06-24T05:08:12.119Z,50.60
2018-06-24T05:10:38.580Z,50.60
2018-06-24T05:13:05.051Z,50.60
2018-06-24T05:15:31.610Z,50.80
2018-06-24T05:17:58.162Z,50.70
2018-06-24T05:20:24.651Z,50.70
2018-06-24T05:22:51.119Z,50.80
2018-06-24T05:25:17.884Z,50.80
2018-06-24T05:27:44.388Z,51.40
2018-06-24T05:30:10.877Z,50.80
2018-06-24T05:32:37.356Z,50.80
2018-06-24T05:35:03.864Z,50.70
2018-06-24T05:37:30.350Z,50.80
2018-06-24T05:39:56.834Z,50.60
2018-06-24T05:42:23.322Z,50.60
2018-06-24T05:44:49.876Z,50.40
2018-06-24T05:47:16.390Z,50.50
2018-06-24T05:49:42.864Z,50.30
2018-06-24T05:52:09.372Z,50.30
2018-06-24T05:54:35.895Z,50.20
2018-06-24T05:57:02.400Z,50.10
2018-06-24T05:59:29.277Z,50.20
2018-06-24T06:01:55.772Z,50.10
2018-06-24T06:04:22.270Z,50.00
2018-06-24T06:06:48.802Z,50.20
2018-06-24T06:09:15.293Z,50.30
2018-06-24T06:11:41.762Z,50.50
2018-06-24T06:14:08.254Z,50.90
2018-06-24T06:16:35.029Z,50.90
2018-06-24T06:19:01.540Z,50.90
2018-06-24T06:21:28.101Z,51.00
2018-06-24T06:23:55.636Z,51.00
2018-06-24T06:26:22.882Z,50.60
2018-06-24T06:28:49.436Z,50.70
2018-06-24T06:31:15.889Z,50.80
2018-06-24T06:33:42.494Z,50.70
2018-06-24T06:36:08.961Z,51.30
2018-06-24T06:38:35.464Z,50.60
2018-06-24T06:41:01.986Z,50.30
2018-06-24T06:43:28.475Z,50.60
2018-06-24T06:45:54.958Z,50.40
2018-06-24T06:48:21.442Z,50.10
2018-06-24T06:50:47.919Z,50.10
2018-06-24T06:53:14.426Z,50.30
2018-06-24T06:55:40.928Z,50.30
2018-06-24T06:58:07.408Z,50.30
2018-06-24T07:00:33.978Z,50.10
2018-06-24T07:03:00.485Z,50.10
2018-06-24T07:05:26.954Z,50.00
2018-06-24T07:07:53.746Z,50.20
2018-06-24T07:12:47.311Z,50.00
2018-06-24T07:15:14.373Z,50.00
2018-06-24T07:17:40.879Z,50.10
2018-06-24T07:20:07.363Z,49.90
2018-06-24T07:22:33.876Z,49.90
2018-06-24T07:25:00.365Z,50.00
2018-06-24T07:27:27.512Z,50.10
2018-06-24T07:29:54.571Z,50.10
2018-06-24T07:32:21.074Z,50.20
2018-06-24T07:34:47.548Z,50.20
2018-06-24T07:37:14.077Z,50.80
2018-06-24T07:39:40.564Z,50.20
2018-06-24T07:42:07.031Z,50.30
2018-06-24T07:44:33.497Z,50.40
2018-06-24T07:46:59.949Z,50.40
2018-06-24T07:49:26.412Z,50.50
2018-06-24T07:51:52.889Z,50.50
2018-06-24T07:54:19.367Z,50.60
2018-06-24T07:56:45.875Z,50.90
2018-06-24T07:59:12.432Z,50.80
2018-06-24T08:01:38.901Z,50.90
2018-06-24T08:04:05.375Z,50.90
2018-06-24T08:06:31.849Z,50.90
2018-06-24T08:08:58.287Z,50.90
2018-06-24T08:11:24.767Z,50.80
2018-06-24T08:13:51.267Z,50.90
2018-06-24T08:16:17.709Z,50.90
2018-06-24T08:18:44.135Z,50.90
2018-06-24T08:21:10.577Z,50.80
2018-06-24T08:23:37.023Z,50.90
2018-06-24T08:26:03.537Z,50.90
2018-06-24T08:28:30.015Z,50.90
2018-06-24T08:30:56.476Z,50.80
2018-06-24T08:33:22.964Z,51.30
2018-06-24T08:35:49.513Z,51.40
2018-06-24T08:38:15.994Z,51.90
2018-06-24T08:40:42.490Z,52.40
2018-06-24T08:43:08.990Z,52.60
2018-06-24T08:45:35.455Z,52.50
2018-06-24T08:48:01.958Z,52.40
2018-06-24T08:50:28.456Z,52.40
2018-06-24T08:52:54.900Z,52.10
2018-06-24T08:55:29.617Z,52.20
2018-06-24T08:57:56.121Z,51.80
2018-06-24T09:00:22.563Z,51.60
2018-06-24T09:02:49.023Z,51.30
2018-06-24T09:05:16.218Z,51.00
2018-06-24T09:07:42.691Z,50.80
2018-06-24T09:10:09.433Z,51.00
2018-06-24T09:12:35.930Z,50.90
2018-06-24T09:15:03.413Z,50.90
2018-06-24T09:17:29.899Z,51.30
2018-06-24T09:19:56.395Z,51.30
2018-06-24T09:22:22.954Z,51.90
2018-06-24T09:24:49.423Z,51.50
2018-06-24T09:27:16.027Z,51.10
2018-06-24T09:29:42.485Z,51.60
2018-06-24T09:32:08.986Z,51.40
2018-06-24T09:34:35.505Z,51.80
2018-06-24T09:37:02.029Z,51.40
2018-06-24T09:39:28.549Z,52.30
2018-06-24T09:41:55.040Z,52.70
2018-06-24T09:44:21.650Z,52.20
2018-06-24T09:46:48.143Z,52.00
2018-06-24T09:49:14.662Z,52.30
2018-06-24T09:51:41.498Z,51.30
2018-06-24T09:54:08.021Z,50.70
2018-06-24T09:56:34.493Z,51.10
2018-06-24T09:59:00.983Z,50.00
2018-06-24T10:01:27.475Z,49.20
2018-06-24T10:03:54.067Z,48.90
2018-06-24T10:06:20.515Z,49.00
2018-06-24T10:08:47.015Z,48.90
2018-06-24T10:11:13.589Z,48.70
2018-06-24T10:13:40.151Z,48.20
2018-06-24T10:16:06.645Z,47.40
2018-06-24T10:18:33.084Z,47.20
2018-06-24T10:20:59.557Z,46.10
2018-06-24T10:23:26.615Z,45.90
2018-06-24T10:25:53.068Z,45.00
2018-06-24T10:28:19.538Z,44.00
2018-06-24T10:35:39.981Z,45.70
2018-06-24T10:38:06.512Z,46.40
2018-06-24T10:40:33.008Z,47.10
2018-06-24T10:42:59.500Z,47.40
2018-06-24T10:45:25.988Z,47.70
2018-06-24T10:47:52.471Z,47.80
2018-06-24T10:50:19.486Z,48.00
2018-06-24T10:52:46.049Z,48.30
2018-06-24T10:55:12.506Z,48.50
2018-06-24T10:57:39.016Z,48.80
2018-06-24T11:00:05.669Z,49.20
2018-06-24T11:02:32.160Z,49.00
2018-06-24T11:04:58.673Z,49.10
2018-06-24T11:07:25.410Z,49.20
2018-06-24T11:09:52.011Z,49.40
2018-06-24T11:12:18.462Z,49.50
2018-06-24T11:14:44.976Z,49.50
2018-06-24T11:17:11.432Z,49.60
2018-06-24T11:19:37.981Z,49.70
2018-06-24T11:22:04.463Z,49.80
2018-06-24T11:24:30.903Z,49.80
2018-06-24T11:26:57.387Z,49.90
2018-06-24T11:29:23.970Z,49.90
2018-06-24T11:31:50.445Z,49.90
2018-06-24T11:34:16.921Z,50.10
2018-06-24T11:36:43.398Z,50.10
2018-06-24T11:39:10.603Z,50.10
2018-06-24T11:41:37.119Z,50.10
2018-06-24T11:44:03.599Z,50.10
2018-06-24T11:46:30.065Z,50.20
2018-06-24T11:48:56.548Z,50.30
2018-06-24T11:51:23.019Z,50.30
2018-06-24T11:53:49.460Z,50.30
2018-06-24T11:56:15.911Z,50.40
2018-06-24T11:58:42.385Z,50.40
2018-06-24T12:01:08.860Z,50.40
2018-06-24T12:03:35.329Z,50.40
2018-06-24T12:06:01.853Z,50.40
2018-06-24T12:08:28.281Z,50.40
2018-06-24T12:10:54.824Z,50.50
2018-06-24T12:13:21.263Z,50.50
2018-06-24T12:15:47.737Z,50.50
2018-06-24T12:18:14.220Z,50.60
2018-06-24T12:20:40.667Z,50.60
2018-06-24T12:23:07.145Z,50.70
2018-06-24T12:25:33.649Z,50.70
2018-06-24T12:28:00.097Z,50.70
2018-06-24T12:30:26.550Z,50.70
2018-06-24T12:32:53.016Z,50.70
2018-06-24T12:35:19.797Z,50.70
2018-06-24T12:37:46.259Z,50.70
2018-06-24T12:40:12.813Z,50.70
2018-06-24T12:42:39.251Z,50.70
2018-06-24T12:45:05.911Z,50.70
2018-06-24T12:47:32.393Z,50.70
2018-06-24T12:49:58.885Z,50.60
2018-06-24T12:52:25.371Z,50.60
2018-06-24T12:54:51.883Z,50.60
2018-06-24T12:57:18.352Z,50.50
2018-06-24T12:59:45.063Z,50.50
2018-06-24T13:02:11.379Z,50.50
2018-06-24T13:04:37.942Z,50.40
2018-06-24T13:07:04.454Z,50.50
2018-06-24T13:09:30.963Z,50.40
2018-06-24T13:11:57.476Z,52.30
2018-06-24T13:14:23.942Z,53.00
2018-06-24T13:16:50.435Z,53.40
2018-06-24T13:19:18.088Z,53.50
2018-06-24T13:21:44.585Z,53.50
2018-06-24T13:26:38.051Z,53.70
2018-06-24T13:29:04.569Z,54.40
2018-06-24T13:31:31.084Z,53.60
2018-06-24T13:33:57.614Z,53.50
2018-06-24T13:36:24.123Z,53.30
2018-06-24T13:38:50.605Z,53.30
2018-06-24T13:41:17.187Z,53.20
2018-06-24T13:43:43.675Z,53.00
2018-06-24T13:46:10.204Z,53.50
2018-06-24T13:48:36.717Z,52.70
2018-06-24T13:51:03.230Z,52.60
2018-06-24T13:53:29.739Z,52.50
2018-06-24T13:55:56.281Z,52.40
2018-06-24T13:58:22.807Z,52.70
2018-06-24T14:00:49.344Z,52.70
2018-06-24T14:03:15.864Z,52.50
2018-06-24T14:05:42.350Z,52.50
2018-06-24T14:08:09.426Z,52.50
2018-06-24T14:13:02.938Z,52.30
2018-06-24T14:15:29.460Z,52.30
2018-06-24T14:17:55.968Z,52.30
2018-06-24T14:20:22.568Z,52.20
2018-06-24T14:22:51.774Z,52.20
2018-06-24T14:25:19.604Z,52.20
2018-06-24T14:27:46.198Z,52.10
2018-06-24T14:30:12.740Z,52.10
2018-06-24T14:32:39.269Z,52.10
2018-06-24T14:35:05.930Z,52.10
2018-06-24T14:37:32.472Z,52.00
2018-06-24T14:39:58.982Z,52.10
2018-06-24T14:42:25.491Z,52.50
2018-06-24T14:44:51.972Z,51.90
2018-06-24T14:47:18.532Z,52.00
2018-06-24T14:49:45.141Z,51.80
2018-06-24T14:52:11.693Z,42.20
2018-06-24T14:54:38.215Z,42.00
2018-06-24T14:57:04.747Z,40.90
2018-06-24T14:59:31.277Z,45.00
2018-06-24T15:01:57.825Z,40.70
2018-06-24T15:04:24.353Z,40.70
2018-06-24T15:06:57.569Z,39.60
2018-06-24T15:09:24.134Z,38.30
2018-06-24T15:11:50.802Z,38.80
2018-06-24T15:14:17.347Z,40.50
2018-06-24T15:16:43.849Z,41.50
2018-06-24T15:19:10.466Z,40.80
2018-06-24T15:21:36.978Z,41.20
2018-06-24T15:24:03.443Z,41.90
2018-06-24T15:26:30.043Z,42.00
2018-06-24T15:28:56.561Z,42.60
2018-06-24T15:31:23.067Z,43.50
2018-06-24T15:33:49.638Z,43.60
2018-06-24T15:36:16.199Z,44.30
2018-06-24T15:38:42.955Z,44.70
2018-06-24T15:41:09.443Z,45.40
2018-06-24T15:43:35.988Z,45.40
2018-06-24T15:46:02.475Z,45.70
2018-06-24T15:48:28.943Z,45.90
2018-06-24T15:50:55.527Z,45.90
2018-06-24T15:53:22.065Z,45.90
2018-06-24T15:55:48.551Z,46.00
2018-06-24T15:58:15.101Z,46.10
2018-06-24T16:00:41.607Z,46.30
2018-06-24T16:03:08.237Z,46.50
2018-06-24T16:05:35.060Z,46.80
2018-06-24T16:08:01.635Z,46.80
2018-06-24T16:10:28.117Z,47.10
2018-06-24T16:12:54.709Z,47.60
2018-06-24T16:15:21.490Z,48.50
2018-06-24T16:17:48.006Z,49.00
2018-06-24T16:20:14.465Z,48.70
2018-06-24T16:22:41.016Z,48.20
2018-06-24T16:25:07.869Z,48.80
2018-06-24T16:27:34.359Z,46.70
2018-06-24T16:30:00.960Z,49.00
2018-06-24T16:32:27.448Z,48.40
2018-06-24T16:34:53.914Z,47.80
2018-06-24T16:37:20.403Z,47.40
2018-06-24T16:39:47.801Z,47.70
2018-06-24T16:42:14.437Z,47.80
2018-06-24T16:44:40.944Z,47.20
2018-06-24T16:47:07.452Z,47.20
2018-06-24T16:52:00.985Z,47.60
2018-06-24T16:54:27.483Z,48.50
2018-06-24T16:56:53.925Z,48.10
2018-06-24T16:59:20.427Z,49.10
2018-06-24T17:01:46.873Z,48.50
2018-06-24T17:04:13.331Z,49.10
2018-06-24T17:06:39.805Z,49.10
2018-06-24T17:09:06.304Z,49.50
2018-06-24T17:11:32.764Z,49.60
2018-06-24T17:13:59.263Z,50.10
2018-06-24T17:18:52.744Z,49.40
2018-06-24T17:21:19.244Z,49.40
2018-06-24T17:23:45.740Z,49.70
2018-06-24T17:26:12.190Z,50.50
2018-06-24T17:28:38.686Z,50.00
2018-06-24T17:31:05.183Z,50.50
2018-06-24T17:33:31.696Z,50.30
2018-06-24T17:35:58.168Z,50.00
2018-06-24T17:38:24.655Z,50.50
2018-06-24T17:40:51.148Z,50.30
2018-06-24T17:43:17.690Z,50.10
2018-06-24T17:48:11.169Z,50.10
2018-06-24T17:50:37.724Z,50.30
2018-06-24T17:53:04.290Z,50.60
2018-06-24T17:55:32.266Z,50.80
2018-06-24T17:57:58.949Z,50.80
2018-06-24T18:00:25.617Z,51.00
2018-06-24T18:02:52.134Z,50.80
2018-06-24T18:05:18.923Z,50.70
2018-06-24T18:07:45.538Z,50.50
2018-06-24T18:10:12.272Z,50.70
2018-06-24T18:12:38.808Z,50.70
2018-06-24T18:15:05.360Z,50.90
2018-06-24T18:17:31.879Z,50.80
2018-06-24T18:20:03.950Z,50.90
2018-06-24T18:22:30.471Z,50.70
2018-06-24T18:24:56.985Z,51.00
2018-06-24T18:27:23.465Z,50.80
2018-06-24T18:29:49.979Z,50.70
2018-06-24T18:32:16.508Z,50.70
2018-06-24T18:34:42.954Z,49.90
2018-06-24T18:37:09.430Z,49.90
2018-06-24T18:39:35.938Z,48.80
2018-06-24T18:42:02.459Z,48.90
2018-06-24T18:44:29.023Z,49.10
2018-06-24T18:46:55.509Z,48.90
2018-06-24T18:49:22.046Z,49.30
2018-06-24T18:51:48.650Z,49.80
2018-06-24T18:54:15.227Z,48.80
2018-06-24T18:56:41.906Z,49.80
2018-06-24T19:01:35.541Z,49.40
2018-06-24T19:04:02.072Z,49.50
2018-06-24T19:06:28.567Z,50.30
2018-06-24T19:08:55.134Z,49.40
2018-06-24T19:11:21.863Z,49.40
2018-06-24T19:13:48.382Z,49.20
2018-06-24T19:16:15.537Z,49.20
2018-06-24T19:18:42.569Z,49.20
2018-06-24T19:21:09.093Z,49.20
2018-06-24T19:23:35.644Z,49.20
2018-06-24T19:26:02.234Z,49.10
2018-06-24T19:28:28.719Z,49.20
2018-06-24T19:30:55.217Z,49.10
2018-06-24T19:33:21.783Z,49.00
2018-06-24T19:35:48.311Z,49.10
2018-06-24T19:38:14.787Z,49.00
2018-06-24T19:40:41.293Z,49.00
2018-06-24T19:43:07.789Z,49.00
2018-06-24T19:45:35.283Z,49.00
2018-06-24T19:48:01.748Z,49.00
2018-06-24T19:50:28.246Z,48.90
2018-06-24T19:52:54.765Z,48.90
2018-06-24T19:55:21.758Z,49.00
2018-06-24T19:57:48.308Z,48.80
2018-06-24T20:00:15.218Z,48.90
2018-06-24T20:02:42.251Z,48.90
2018-06-24T20:05:09.620Z,48.90
2018-06-24T20:07:37.237Z,48.80
2018-06-24T20:10:03.893Z,48.80
2018-06-24T20:12:30.385Z,48.80
2018-06-24T20:14:57.227Z,48.80
2018-06-24T20:17:24.453Z,48.50
2018-06-24T20:19:51.092Z,48.80
2018-06-24T20:22:18.372Z,48.80
2018-06-24T20:24:44.879Z,48.40
2018-06-24T20:27:11.329Z,48.80
2018-06-24T20:29:37.787Z,48.80
2018-06-24T20:32:04.234Z,48.70
2018-06-24T20:34:30.682Z,48.80
2018-06-24T20:36:57.156Z,48.80
2018-06-24T20:39:23.655Z,48.80
2018-06-24T20:41:50.234Z,48.90
2018-06-24T20:44:16.789Z,49.20
2018-06-24T20:46:43.296Z,48.90
2018-06-24T20:49:09.771Z,49.20
2018-06-24T20:51:36.248Z,49.00
2018-06-24T20:54:02.724Z,49.00
2018-06-24T20:56:29.187Z,49.10
2018-06-24T20:58:55.736Z,49.20
2018-06-24T21:01:22.212Z,49.20
2018-06-24T21:03:48.740Z,49.20
2018-06-24T21:06:15.433Z,49.20
2018-06-24T21:08:42.170Z,49.80
2018-06-24T21:11:08.674Z,49.10
2018-06-24T21:13:35.166Z,49.10
2018-06-24T21:16:01.616Z,49.10
2018-06-24T21:18:28.107Z,49.20
2018-06-24T21:20:54.702Z,49.20
2018-06-24T21:23:21.192Z,49.20
2018-06-24T21:25:47.673Z,49.20
2018-06-24T21:28:14.862Z,49.30
2018-06-24T21:30:41.385Z,49.30
2018-06-24T21:33:07.840Z,49.40
2018-06-24T21:35:34.436Z,49.40
2018-06-24T21:38:00.916Z,49.20
2018-06-24T21:40:27.386Z,49.30
2018-06-24T21:42:53.852Z,49.30
2018-06-24T21:45:20.421Z,49.40
2018-06-24T21:47:46.915Z,49.40
2018-06-24T21:50:13.382Z,49.50
2018-06-24T21:52:39.924Z,49.50
2018-06-24T21:55:06.437Z,49.60
2018-06-24T21:57:32.931Z,49.60
2018-06-24T21:59:59.407Z,50.20
2018-06-24T22:02:25.892Z,49.50
2018-06-24T22:04:52.337Z,49.60
2018-06-24T22:07:18.844Z,49.50
2018-06-24T22:09:45.354Z,49.40
2018-06-24T22:12:11.836Z,49.40
2018-06-24T22:14:38.304Z,49.30
2018-06-24T22:17:04.815Z,49.30
2018-06-24T22:19:31.275Z,49.40
2018-06-24T22:24:24.724Z,49.20
2018-06-24T22:26:51.227Z,49.30
2018-06-24T22:29:17.712Z,49.20
2018-06-24T22:31:44.188Z,49.30
2018-06-24T22:34:10.680Z,49.30
2018-06-24T22:36:37.146Z,49.20
2018-06-24T22:39:04.060Z,49.20
2018-06-24T22:41:30.541Z,49.20
2018-06-24T22:43:57.036Z,49.20
2018-06-24T22:46:23.501Z,49.20
2018-06-24T22:48:50.056Z,49.10
2018-06-24T22:51:16.529Z,49.20
2018-06-24T22:53:43.040Z,49.10
2018-06-24T22:56:09.526Z,49.20
2018-06-24T22:58:36.010Z,49.20
2018-06-24T23:01:02.518Z,49.10
2018-06-24T23:03:28.952Z,49.20
2018-06-24T23:05:55.403Z,49.10
2018-06-24T23:08:21.894Z,49.20
2018-06-24T23:10:48.405Z,49.00
2018-06-24T23:15:41.883Z,49.20
2018-06-24T23:18:08.367Z,49.00
2018-06-24T23:20:34.819Z,49.00
2018-06-24T23:23:01.277Z,49.00
2018-06-24T23:25:28.185Z,49.00
2018-06-24T23:27:54.663Z,49.00
2018-06-24T23:30:21.108Z,49.00
2018-06-24T23:32:47.592Z,49.00
2018-06-24T23:35:14.041Z,49.00
2018-06-24T23:37:40.528Z,49.10
2018-06-24T23:40:07.003Z,49.20
2018-06-24T23:42:33.515Z,49.10
2018-06-24T23:44:59.958Z,49.10
2018-06-24T23:47:26.532Z,49.20
2018-06-24T23:52:30.453Z,49.30
2018-06-24T23:54:56.938Z,49.40
2018-06-24T23:57:23.412Z,49.40
2018-06-24T23:59:49.902Z,49.40
